Terminal Aerodrome Forecast
Issued by NWS Cleveland, OH

Home | Current Version | Previous Version | Graphics & Text | Print | Product List | Glossary On
Versions: 1 2 3 4 5 6 7 8 9 10 11 12 13 14 15 16 17 18
000
FTUS41 KCLE 041121
TAFCAK
TAF
KCAK 041121Z 0412/0512 VRB06KT P6SM SCT030 BKN100
     FM050100 17008KT 6SM -RASN BR BKN025
     FM050300 21009KT 3SM -SN BR OVC020
     FM050600 26009KT P6SM VCSH BKN025
     FM050800 28008KT P6SM BKN025=

USA.gov is the U.S. government's official web portal to all federal, state and local government web resources and services.